createdAt,value
2018-12-09T00:01:33.002Z,9.30
2018-12-09T00:04:06.740Z,9.30
2018-12-09T00:06:40.490Z,9.30
2018-12-09T00:09:14.233Z,9.40
2018-12-09T00:11:47.853Z,9.50
2018-12-09T00:14:21.673Z,9.60
2018-12-09T00:16:56.165Z,9.70
2018-12-09T00:19:29.849Z,9.70
2018-12-09T00:22:03.681Z,9.80
2018-12-09T00:24:37.508Z,9.80
2018-12-09T00:27:11.294Z,9.80
2018-12-09T00:29:44.847Z,9.90
2018-12-09T00:32:19.136Z,9.90
2018-12-09T00:34:52.729Z,9.90
2018-12-09T00:37:26.656Z,9.80
2018-12-09T00:40:00.123Z,9.80
2018-12-09T00:42:33.641Z,9.70
2018-12-09T00:45:07.860Z,9.70
2018-12-09T00:47:41.560Z,9.70
2018-12-09T00:50:15.299Z,9.70
2018-12-09T00:52:48.833Z,9.70
2018-12-09T00:55:22.489Z,9.70
2018-12-09T00:57:56.027Z,9.70
2018-12-09T01:00:29.776Z,9.70
2018-12-09T01:03:03.430Z,9.80
2018-12-09T01:05:37.047Z,9.80
2018-12-09T01:08:10.575Z,9.90
2018-12-09T01:10:44.257Z,9.90
2018-12-09T01:13:17.911Z,9.90
2018-12-09T01:15:51.659Z,9.90
2018-12-09T01:18:25.993Z,9.90
2018-12-09T01:20:59.596Z,9.90
2018-12-09T01:23:33.342Z,9.90
2018-12-09T01:26:07.015Z,10.00
2018-12-09T01:28:40.583Z,9.90
2018-12-09T01:31:14.240Z,9.90
2018-12-09T01:33:47.824Z,9.90
2018-12-09T01:36:21.436Z,10.00
2018-12-09T01:38:55.098Z,10.00
2018-12-09T01:41:29.507Z,10.10
2018-12-09T01:44:03.083Z,10.10
2018-12-09T01:46:36.643Z,10.10
2018-12-09T01:49:10.471Z,10.10
2018-12-09T01:51:44.165Z,10.10
2018-12-09T01:54:17.871Z,10.10
2018-12-09T01:56:51.456Z,10.20
2018-12-09T01:59:25.032Z,10.20
2018-12-09T02:01:58.626Z,10.20
2018-12-09T02:04:32.266Z,10.20
2018-12-09T02:07:06.014Z,10.20
2018-12-09T02:09:39.625Z,10.20
2018-12-09T02:12:13.263Z,10.10
2018-12-09T02:14:47.043Z,9.90
2018-12-09T02:17:20.668Z,9.90
2018-12-09T02:19:55.004Z,9.70
2018-12-09T02:22:28.763Z,9.70
2018-12-09T02:25:02.408Z,9.70
2018-12-09T02:27:36.125Z,9.50
2018-12-09T02:30:09.793Z,9.30
2018-12-09T02:32:43.359Z,9.20
2018-12-09T02:35:16.916Z,9.00
2018-12-09T02:37:51.288Z,8.60
2018-12-09T02:40:25.624Z,8.50
2018-12-09T02:42:59.110Z,8.50
2018-12-09T02:45:32.672Z,8.50
2018-12-09T02:48:06.208Z,8.50
2018-12-09T02:50:40.569Z,8.40
2018-12-09T02:53:14.255Z,8.40
2018-12-09T02:55:47.844Z,8.40
2018-12-09T02:58:21.375Z,8.40
2018-12-09T03:00:55.139Z,8.50
2018-12-09T03:03:28.819Z,8.50
2018-12-09T03:06:03.229Z,8.50
2018-12-09T03:08:36.852Z,8.50
2018-12-09T03:11:10.390Z,8.50
2018-12-09T03:13:44.803Z,8.30
2018-12-09T03:16:18.374Z,8.30
2018-12-09T03:18:52.135Z,8.30
2018-12-09T03:21:25.713Z,8.20
2018-12-09T03:23:59.434Z,8.10
2018-12-09T03:26:33.216Z,8.10
2018-12-09T03:29:06.769Z,8.20
2018-12-09T03:31:40.583Z,8.40
2018-12-09T03:34:14.853Z,8.50
2018-12-09T03:36:49.356Z,8.50
2018-12-09T03:39:23.676Z,8.50
2018-12-09T03:41:57.361Z,8.50
2018-12-09T03:44:31.055Z,8.50
2018-12-09T03:47:04.691Z,8.60
2018-12-09T03:49:38.349Z,8.60
2018-12-09T03:52:12.041Z,8.70
2018-12-09T03:54:46.496Z,8.70
2018-12-09T03:57:20.081Z,8.70
2018-12-09T03:59:54.429Z,8.70
2018-12-09T04:02:28.086Z,8.70
2018-12-09T04:05:01.750Z,8.70
2018-12-09T04:07:35.304Z,8.70
2018-12-09T04:10:08.990Z,8.90
2018-12-09T04:12:42.541Z,8.90
2018-12-09T04:15:16.073Z,9.00
2018-12-09T04:17:50.349Z,9.00
2018-12-09T04:20:24.091Z,9.00
2018-12-09T04:22:57.909Z,9.00
2018-12-09T04:25:31.641Z,9.00
2018-12-09T04:28:05.206Z,8.80
2018-12-09T04:30:38.993Z,8.80
2018-12-09T04:33:12.759Z,8.80
2018-12-09T04:35:46.337Z,8.80
2018-12-09T04:38:19.803Z,8.70
2018-12-09T04:40:53.537Z,8.70
2018-12-09T04:43:27.085Z,8.60
2018-12-09T04:46:00.595Z,8.60
2018-12-09T04:48:34.386Z,8.50
2018-12-09T04:51:07.999Z,8.50
2018-12-09T04:53:41.567Z,8.50
2018-12-09T04:56:15.353Z,8.50
2018-12-09T04:58:51.853Z,8.40
2018-12-09T05:01:25.379Z,8.40
2018-12-09T05:03:58.962Z,8.40
2018-12-09T05:06:32.654Z,8.40
2018-12-09T05:09:06.382Z,8.40
2018-12-09T05:11:39.959Z,8.30
2018-12-09T05:14:13.658Z,8.30
2018-12-09T05:16:47.320Z,8.30
2018-12-09T05:19:20.884Z,8.30
2018-12-09T05:21:54.603Z,8.20
2018-12-09T05:24:28.198Z,8.20
2018-12-09T05:27:02.739Z,8.10
2018-12-09T05:29:36.500Z,8.10
2018-12-09T05:32:10.092Z,8.10
2018-12-09T05:34:44.432Z,8.20
2018-12-09T05:37:18.873Z,8.20
2018-12-09T05:39:52.480Z,8.20
2018-12-09T05:42:26.042Z,8.20
2018-12-09T05:44:59.773Z,8.20
2018-12-09T05:47:34.077Z,8.40
2018-12-09T05:50:07.765Z,8.40
2018-12-09T05:52:41.507Z,8.50
2018-12-09T05:55:15.266Z,8.60
2018-12-09T05:57:49.033Z,8.60
2018-12-09T06:00:22.752Z,8.60
2018-12-09T06:02:57.140Z,8.70
2018-12-09T06:05:30.786Z,8.70
2018-12-09T06:08:04.327Z,8.70
2018-12-09T06:10:38.769Z,8.70
2018-12-09T06:13:12.476Z,8.70
2018-12-09T06:15:46.062Z,8.70
2018-12-09T06:18:19.568Z,8.70
2018-12-09T06:20:53.238Z,8.70
2018-12-09T06:23:26.932Z,8.70
2018-12-09T06:26:00.717Z,8.70
2018-12-09T06:28:34.330Z,8.70
2018-12-09T06:31:07.967Z,8.70
2018-12-09T06:33:41.555Z,8.70
2018-12-09T06:36:15.162Z,8.80
2018-12-09T06:38:48.810Z,8.70
2018-12-09T06:41:22.563Z,8.70
2018-12-09T06:43:56.297Z,8.80
2018-12-09T06:46:29.949Z,8.70
2018-12-09T06:49:03.640Z,8.70
2018-12-09T06:51:37.170Z,8.70
2018-12-09T06:54:10.867Z,8.70
2018-12-09T06:56:44.462Z,8.70
2018-12-09T06:59:18.179Z,8.70
2018-12-09T07:01:51.899Z,8.70
2018-12-09T07:04:25.466Z,8.70
2018-12-09T07:06:59.026Z,8.70
2018-12-09T07:09:32.590Z,8.70
2018-12-09T07:12:06.126Z,8.70
2018-12-09T07:14:39.706Z,8.80
2018-12-09T07:17:13.282Z,8.80
2018-12-09T07:19:46.980Z,8.70
2018-12-09T07:22:20.724Z,8.70
2018-12-09T07:24:54.440Z,8.70
2018-12-09T07:27:28.762Z,8.60
2018-12-09T07:30:03.120Z,8.60
2018-12-09T07:32:36.748Z,8.60
2018-12-09T07:35:11.307Z,8.60
2018-12-09T07:37:45.675Z,8.70
2018-12-09T07:40:19.298Z,8.70
2018-12-09T07:42:53.611Z,8.80
2018-12-09T07:45:27.255Z,8.80
2018-12-09T07:48:01.671Z,8.80
2018-12-09T07:50:35.410Z,8.80
2018-12-09T07:53:08.968Z,8.80
2018-12-09T07:55:42.764Z,8.70
2018-12-09T07:58:17.268Z,8.70
2018-12-09T08:00:51.053Z,8.70
2018-12-09T08:03:24.755Z,8.70
2018-12-09T08:05:58.481Z,8.70
2018-12-09T08:08:32.045Z,8.70
2018-12-09T08:11:05.691Z,8.80
2018-12-09T08:13:39.307Z,8.80
2018-12-09T08:16:12.879Z,8.80
2018-12-09T08:18:46.553Z,8.80
2018-12-09T08:21:20.222Z,8.80
2018-12-09T08:23:54.638Z,8.80
2018-12-09T08:26:28.337Z,8.80
2018-12-09T08:29:01.911Z,8.80
2018-12-09T08:31:35.523Z,8.80
2018-12-09T08:34:09.260Z,8.80
2018-12-09T08:36:43.733Z,8.90
2018-12-09T08:39:17.511Z,8.90
2018-12-09T08:41:51.063Z,9.00
2018-12-09T08:44:24.723Z,9.00
2018-12-09T08:46:58.349Z,9.10
2018-12-09T08:49:32.024Z,9.10
2018-12-09T08:52:05.786Z,9.10
2018-12-09T08:54:39.390Z,9.10
2018-12-09T08:57:13.022Z,9.00
2018-12-09T08:59:46.726Z,9.00
2018-12-09T09:02:20.303Z,8.90
2018-12-09T09:04:54.086Z,8.90
2018-12-09T09:07:27.676Z,8.90
2018-12-09T09:10:01.389Z,8.90
2018-12-09T09:12:35.251Z,9.00
2018-12-09T09:15:08.992Z,9.20
2018-12-09T09:17:42.651Z,9.20
2018-12-09T09:20:16.468Z,9.20
2018-12-09T09:22:50.168Z,9.10
2018-12-09T09:25:23.837Z,9.10
2018-12-09T09:27:57.638Z,9.00
2018-12-09T09:30:31.241Z,9.00
2018-12-09T09:33:04.769Z,9.00
2018-12-09T09:35:39.168Z,8.70
2018-12-09T09:38:13.666Z,8.70
2018-12-09T09:40:47.388Z,8.60
2018-12-09T09:43:20.994Z,8.60
2018-12-09T09:45:54.645Z,8.50
2018-12-09T09:48:28.240Z,8.40
2018-12-09T09:51:01.924Z,8.30
2018-12-09T09:53:35.742Z,8.20
2018-12-09T09:56:09.516Z,8.20
2018-12-09T09:58:43.277Z,8.10
2018-12-09T10:01:17.409Z,8.10
2018-12-09T10:03:51.343Z,8.20
2018-12-09T10:06:25.139Z,8.20
2018-12-09T10:08:58.726Z,8.20
2018-12-09T10:11:32.505Z,8.10
2018-12-09T10:14:06.271Z,8.20
2018-12-09T10:16:39.953Z,8.20
2018-12-09T10:19:13.644Z,8.20
2018-12-09T10:21:47.383Z,8.30
2018-12-09T10:24:21.069Z,8.30
2018-12-09T10:26:55.503Z,8.30
2018-12-09T10:29:29.964Z,8.30
2018-12-09T10:32:03.657Z,8.30
2018-12-09T10:34:38.966Z,8.30
2018-12-09T10:37:11.099Z,8.30
2018-12-09T10:39:45.652Z,8.30
2018-12-09T10:42:19.284Z,8.30
2018-12-09T10:44:53.083Z,8.20
2018-12-09T10:47:27.550Z,8.30
2018-12-09T10:50:01.360Z,8.30
2018-12-09T10:52:34.975Z,8.30
2018-12-09T10:55:08.523Z,8.20
2018-12-09T10:57:42.336Z,7.90
2018-12-09T11:00:16.959Z,7.90
2018-12-09T11:02:50.517Z,7.90
2018-12-09T11:05:24.338Z,8.00
2018-12-09T11:07:57.972Z,7.90
2018-12-09T11:12:48.473Z,8.10
2018-12-09T11:15:22.009Z,7.90
2018-12-09T11:17:55.626Z,7.80
2018-12-09T11:20:30.156Z,7.80
2018-12-09T11:23:03.800Z,7.80
2018-12-09T11:25:37.316Z,7.70
2018-12-09T11:28:10.887Z,7.70
2018-12-09T11:30:44.437Z,7.60
2018-12-09T11:33:17.978Z,7.50
2018-12-09T11:35:51.550Z,7.50
2018-12-09T11:38:25.388Z,7.50
2018-12-09T11:40:59.247Z,7.50
2018-12-09T11:43:32.897Z,7.50
2018-12-09T11:46:06.704Z,7.60
2018-12-09T11:48:40.533Z,7.50
2018-12-09T11:51:14.366Z,7.60
2018-12-09T11:53:48.183Z,7.60
2018-12-09T11:56:21.967Z,7.60
2018-12-09T11:58:55.612Z,7.70
2018-12-09T12:01:29.373Z,7.80
2018-12-09T12:04:03.958Z,7.60
2018-12-09T12:06:37.756Z,7.60
2018-12-09T12:09:12.299Z,7.70
2018-12-09T12:11:45.844Z,7.70
2018-12-09T12:14:19.585Z,7.70
2018-12-09T12:16:53.347Z,7.70
2018-12-09T12:19:27.158Z,7.80
2018-12-09T12:22:01.595Z,7.80
2018-12-09T12:24:35.268Z,7.80
2018-12-09T12:27:09.056Z,7.80
2018-12-09T12:29:42.750Z,7.90
2018-12-09T12:32:16.288Z,8.00
2018-12-09T12:34:49.930Z,8.10
2018-12-09T12:37:23.866Z,8.10
2018-12-09T12:39:57.557Z,8.10
2018-12-09T12:42:32.116Z,8.10
2018-12-09T12:45:05.846Z,8.00
2018-12-09T12:47:39.536Z,8.10
2018-12-09T12:50:13.172Z,8.10
2018-12-09T12:52:47.694Z,8.10
2018-12-09T12:55:22.132Z,8.10
2018-12-09T12:57:55.657Z,8.10
2018-12-09T13:00:29.398Z,8.10
2018-12-09T13:03:03.123Z,8.00
2018-12-09T13:05:36.856Z,8.00
2018-12-09T13:08:11.307Z,7.80
2018-12-09T13:10:45.768Z,7.70
2018-12-09T13:13:20.289Z,7.70
2018-12-09T13:15:54.112Z,7.70
2018-12-09T13:18:28.542Z,7.70
2018-12-09T13:21:05.437Z,7.70
2018-12-09T13:23:39.194Z,7.70
2018-12-09T13:26:12.960Z,7.60
2018-12-09T13:28:46.860Z,7.60
2018-12-09T13:31:20.562Z,7.60
2018-12-09T13:33:54.274Z,7.70
2018-12-09T13:36:27.863Z,7.70
2018-12-09T13:39:01.582Z,7.60
2018-12-09T13:41:35.247Z,7.70
2018-12-09T13:44:08.937Z,7.70
2018-12-09T13:46:42.771Z,7.60
2018-12-09T13:49:16.548Z,7.50
2018-12-09T13:51:50.269Z,7.50
2018-12-09T13:54:23.915Z,7.50
2018-12-09T13:56:57.666Z,7.50
2018-12-09T13:59:31.337Z,7.50
2018-12-09T14:02:04.977Z,7.50
2018-12-09T14:04:38.602Z,7.40
2018-12-09T14:07:12.304Z,7.30
2018-12-09T14:09:45.965Z,7.30
2018-12-09T14:12:19.732Z,7.40
2018-12-09T14:14:53.373Z,7.40
2018-12-09T14:17:27.271Z,7.40
2018-12-09T14:20:01.015Z,7.30
2018-12-09T14:22:34.841Z,7.30
2018-12-09T14:25:08.637Z,7.30
2018-12-09T14:27:42.464Z,7.30
2018-12-09T14:30:16.192Z,7.40
2018-12-09T14:32:49.881Z,7.40
2018-12-09T14:35:23.504Z,7.40
2018-12-09T14:37:57.257Z,7.40
2018-12-09T14:40:30.859Z,7.40
2018-12-09T14:43:05.432Z,7.50
2018-12-09T14:45:39.759Z,7.50
2018-12-09T14:48:13.489Z,7.40
2018-12-09T14:50:47.244Z,7.50
2018-12-09T14:53:21.075Z,7.50
2018-12-09T14:55:55.634Z,7.50
2018-12-09T14:58:29.274Z,7.50
2018-12-09T15:01:03.031Z,7.50
2018-12-09T15:03:37.501Z,7.60
2018-12-09T15:06:11.863Z,7.60
2018-12-09T15:08:45.576Z,7.60
2018-12-09T15:11:19.212Z,7.60
2018-12-09T15:13:52.969Z,7.60
2018-12-09T15:16:27.497Z,7.60
2018-12-09T15:19:01.390Z,7.60
2018-12-09T15:21:35.738Z,7.60
2018-12-09T15:24:09.254Z,7.60
2018-12-09T15:26:43.010Z,7.60
2018-12-09T15:29:17.525Z,7.50
2018-12-09T15:31:51.334Z,7.50
2018-12-09T15:34:25.032Z,7.50
2018-12-09T15:36:58.663Z,7.50
2018-12-09T15:39:32.510Z,7.40
2018-12-09T15:42:06.140Z,7.40
2018-12-09T15:44:40.656Z,7.50
2018-12-09T15:47:14.409Z,7.40
2018-12-09T15:49:48.888Z,7.50
2018-12-09T15:52:22.680Z,7.40
2018-12-09T15:54:56.414Z,7.50
2018-12-09T15:57:30.125Z,7.50
2018-12-09T16:00:03.697Z,7.60
2018-12-09T16:02:37.510Z,7.60
2018-12-09T16:05:11.813Z,7.60
2018-12-09T16:07:45.556Z,7.60
2018-12-09T16:10:20.139Z,7.60
2018-12-09T16:12:53.869Z,7.50
2018-12-09T16:15:27.472Z,7.50
2018-12-09T16:18:01.203Z,7.60
2018-12-09T16:20:35.703Z,7.60
2018-12-09T16:23:09.651Z,7.60
2018-12-09T16:25:43.436Z,7.60
2018-12-09T16:28:17.254Z,7.60
2018-12-09T16:30:51.025Z,7.60
2018-12-09T16:33:24.685Z,7.60
2018-12-09T16:35:59.195Z,7.70
2018-12-09T16:38:32.837Z,7.70
2018-12-09T16:41:06.683Z,7.70
2018-12-09T16:43:40.497Z,7.80
2018-12-09T16:46:14.245Z,7.80
2018-12-09T16:48:47.871Z,7.90
2018-12-09T16:51:21.560Z,7.90
2018-12-09T16:53:55.338Z,8.00
2018-12-09T16:56:29.075Z,8.00
2018-12-09T16:59:02.738Z,8.10
2018-12-09T17:01:36.362Z,8.10
2018-12-09T17:04:10.113Z,8.10
2018-12-09T17:06:43.773Z,8.10
2018-12-09T17:09:17.656Z,8.10
2018-12-09T17:11:51.254Z,8.10
2018-12-09T17:14:25.062Z,8.10
2018-12-09T17:16:58.864Z,8.20
2018-12-09T17:19:32.645Z,8.10
2018-12-09T17:22:06.267Z,8.20
2018-12-09T17:24:40.020Z,8.20
2018-12-09T17:27:13.618Z,8.30
2018-12-09T17:29:47.342Z,8.30
2018-12-09T17:32:21.083Z,8.30
2018-12-09T17:34:54.816Z,8.30
2018-12-09T17:37:28.464Z,8.30
2018-12-09T17:40:03.031Z,8.20
2018-12-09T17:42:36.785Z,8.20
2018-12-09T17:45:10.849Z,8.20
2018-12-09T17:47:44.432Z,8.20
2018-12-09T17:50:18.249Z,8.20
2018-12-09T17:52:52.069Z,8.20
2018-12-09T17:55:25.819Z,8.20
2018-12-09T17:57:59.582Z,8.20
2018-12-09T18:00:34.094Z,8.10
2018-12-09T18:03:07.765Z,8.10
2018-12-09T18:05:41.511Z,8.00
2018-12-09T18:08:15.199Z,8.00
2018-12-09T18:10:48.954Z,8.10
2018-12-09T18:13:22.543Z,8.00
2018-12-09T18:15:58.273Z,8.00
2018-12-09T18:18:31.839Z,8.00
2018-12-09T18:21:05.666Z,8.00
2018-12-09T18:23:39.541Z,8.00
2018-12-09T18:26:13.269Z,8.00
2018-12-09T18:28:47.026Z,8.00
2018-12-09T18:31:20.634Z,8.00
2018-12-09T18:33:54.394Z,8.00
2018-12-09T18:36:28.172Z,8.00
2018-12-09T18:39:02.634Z,8.00
2018-12-09T18:41:36.656Z,7.90
2018-12-09T18:44:10.448Z,8.00
2018-12-09T18:46:44.278Z,8.00
2018-12-09T18:49:18.021Z,8.00
2018-12-09T18:51:52.626Z,7.90
2018-12-09T18:54:27.254Z,7.90
2018-12-09T18:57:00.924Z,7.90
2018-12-09T18:59:35.041Z,7.90
2018-12-09T19:02:08.460Z,7.90
2018-12-09T19:04:42.044Z,7.90
2018-12-09T19:07:15.781Z,7.80
2018-12-09T19:09:49.503Z,7.80
2018-12-09T19:12:23.291Z,7.80
2018-12-09T19:14:57.046Z,7.80
2018-12-09T19:17:32.428Z,7.80
2018-12-09T19:20:06.862Z,7.70
2018-12-09T19:22:40.633Z,7.70
2018-12-09T19:25:15.137Z,7.70
2018-12-09T19:27:48.804Z,7.70
2018-12-09T19:30:23.173Z,7.60
2018-12-09T19:32:56.929Z,7.60
2018-12-09T19:35:30.607Z,7.60
2018-12-09T19:38:04.424Z,7.60
2018-12-09T19:40:38.085Z,7.60
2018-12-09T19:43:13.263Z,7.50
2018-12-09T19:45:45.598Z,7.50
2018-12-09T19:48:19.332Z,7.50
2018-12-09T19:50:53.125Z,7.40
2018-12-09T19:53:26.979Z,7.40
2018-12-09T19:56:00.704Z,7.40
2018-12-09T19:58:34.461Z,7.40
2018-12-09T20:01:08.238Z,7.40
2018-12-09T20:03:41.978Z,7.40
2018-12-09T20:06:16.646Z,7.40
2018-12-09T20:08:50.274Z,7.50
2018-12-09T20:11:23.856Z,7.50
2018-12-09T20:13:58.224Z,7.50
2018-12-09T20:16:32.038Z,7.50
2018-12-09T20:19:05.911Z,7.50
2018-12-09T20:21:39.612Z,7.50
2018-12-09T20:24:13.402Z,7.50
2018-12-09T20:26:47.158Z,7.40
2018-12-09T20:29:20.959Z,7.40
2018-12-09T20:31:54.721Z,7.40
2018-12-09T20:34:28.587Z,7.40
2018-12-09T20:37:02.334Z,7.40
2018-12-09T20:39:36.021Z,7.40
2018-12-09T20:42:10.495Z,7.40
2018-12-09T20:44:44.172Z,7.40
2018-12-09T20:47:17.948Z,7.40
2018-12-09T20:49:52.553Z,7.40
2018-12-09T20:52:26.269Z,7.50
2018-12-09T20:55:00.701Z,7.50
2018-12-09T20:57:35.081Z,7.50
2018-12-09T21:00:08.896Z,7.50
2018-12-09T21:02:42.652Z,7.60
2018-12-09T21:05:17.157Z,7.60
2018-12-09T21:07:50.841Z,7.50
2018-12-09T21:10:24.549Z,7.50
2018-12-09T21:12:58.227Z,7.50
2018-12-09T21:15:32.061Z,7.50
2018-12-09T21:18:05.791Z,7.40
2018-12-09T21:20:39.617Z,7.40
2018-12-09T21:23:13.389Z,7.30
2018-12-09T21:25:47.174Z,7.30
2018-12-09T21:28:21.623Z,7.30
2018-12-09T21:30:55.440Z,7.30
2018-12-09T21:33:29.219Z,7.30
2018-12-09T21:36:02.923Z,7.30
2018-12-09T21:38:36.543Z,7.40
2018-12-09T21:41:10.314Z,7.40
2018-12-09T21:43:44.118Z,7.40
2018-12-09T21:46:17.877Z,7.40
2018-12-09T21:48:51.680Z,7.40
2018-12-09T21:51:25.255Z,7.40
2018-12-09T21:53:58.917Z,7.40
2018-12-09T21:56:32.666Z,7.40
2018-12-09T21:59:06.345Z,7.40
2018-12-09T22:01:40.199Z,7.40
2018-12-09T22:04:14.703Z,7.30
2018-12-09T22:06:48.555Z,7.30
2018-12-09T22:09:23.090Z,7.30
2018-12-09T22:11:57.453Z,7.20
2018-12-09T22:14:31.284Z,7.20
2018-12-09T22:17:05.078Z,7.20
2018-12-09T22:19:38.869Z,7.10
2018-12-09T22:22:13.197Z,7.10
2018-12-09T22:24:46.908Z,7.10
2018-12-09T22:27:20.694Z,7.10
2018-12-09T22:29:54.460Z,7.10
2018-12-09T22:32:28.169Z,7.10
2018-12-09T22:35:02.014Z,7.10
2018-12-09T22:37:35.809Z,7.10
2018-12-09T22:40:09.473Z,7.10
2018-12-09T22:42:43.249Z,7.10
2018-12-09T22:45:16.784Z,7.10
2018-12-09T22:47:50.406Z,7.10
2018-12-09T22:50:24.030Z,7.10
2018-12-09T22:52:57.627Z,7.10
2018-12-09T22:55:32.152Z,7.10
2018-12-09T22:58:05.930Z,7.10
2018-12-09T23:00:40.258Z,7.10
2018-12-09T23:03:14.825Z,7.10
2018-12-09T23:05:48.694Z,7.10
2018-12-09T23:08:22.389Z,7.10
2018-12-09T23:10:55.986Z,7.10
2018-12-09T23:13:29.585Z,7.10
2018-12-09T23:16:03.445Z,7.10
2018-12-09T23:18:37.052Z,7.20
2018-12-09T23:21:10.815Z,7.10
2018-12-09T23:23:44.459Z,7.20
2018-12-09T23:26:18.014Z,7.20
2018-12-09T23:28:51.610Z,7.20
2018-12-09T23:31:25.696Z,7.20
2018-12-09T23:33:59.637Z,7.20
2018-12-09T23:36:33.487Z,7.20
2018-12-09T23:39:07.309Z,7.20
2018-12-09T23:41:41.072Z,7.20
2018-12-09T23:44:14.700Z,7.20
2018-12-09T23:46:49.610Z,7.20
2018-12-09T23:49:23.382Z,7.20
2018-12-09T23:51:57.153Z,7.20
2018-12-09T23:54:30.851Z,7.20
2018-12-09T23:57:04.401Z,7.10
2018-12-09T23:59:38.112Z,7.10
